The request has been executed successfully.

The input positions has been matched with the following result:

Complete Path
Country code Length Speed Limit Forward Routing Segment Index Tile Id
52 239 30 44 1110201442
52 12 30 43 1110201442
52 13 0 41 1110201442
52 9 0 38 1110201442
52 18 0 39 1110201442
52 13 0 40 1110201442
52 80 0 45 1110201442
52 10 0 37 1110201441
52 58 0 41 1110201441
52 15 0 43 1110201441
52 44 0 44 1110201441
52 72 0 48 1110201441
52 52 0 52 1110201441
52 67 0 55 1110201441
52 35 0 58 1110201441
52 91 0 59 1110201441
52 64 0 71 1110201441
52 102 0 78 1110201441
52 36 0 85 1110201441
52 40 0 45 1110266977
52 39 0 56 1110266977
52 119 0 75 1110266977
52 107 0 77 1110266977

Matched Locations
Input Id Latitude Longitude Heading Stable Path
1 49.626036429286216 6.114751597918702 251.56505 true Length= 239 SpeedLimitForward = 30 TileId=1110201442 RtgSegIdx=44
10 49.62590877313846 6.114160391597723 251.56505 true Length= 239 SpeedLimitForward = 30 TileId=1110201442 RtgSegIdx=44
20 49.62570130269805 6.113761841781496 165.96376 true Length= 239 SpeedLimitForward = 30 TileId=1110201442 RtgSegIdx=44
Length= 12 SpeedLimitForward = 30 TileId=1110201442 RtgSegIdx=43
Length= 13 SpeedLimitForward = 0 TileId=1110201442 RtgSegIdx=41
Length= 9 SpeedLimitForward = 0 TileId=1110201442 RtgSegIdx=38
Length= 18 SpeedLimitForward = 0 TileId=1110201442 RtgSegIdx=39
Length= 13 SpeedLimitForward = 0 TileId=1110201442 RtgSegIdx=40
30 49.625304465978985 6.114034449727031 152.44719 true Length= 13 SpeedLimitForward = 0 TileId=1110201442 RtgSegIdx=40
Length= 80 SpeedLimitForward = 0 TileId=1110201442 RtgSegIdx=45
40 49.62486073985232 6.1143673874261815 150.64224 true Length= 80 SpeedLimitForward = 0 TileId=1110201442 RtgSegIdx=45
Length= 10 SpeedLimitForward = 0 TileId=1110201441 RtgSegIdx=37
Length= 58 SpeedLimitForward = 0 TileId=1110201441 RtgSegIdx=41
50 49.624505047949924 6.114676247014029 150.64224 true Length= 58 SpeedLimitForward = 0 TileId=1110201441 RtgSegIdx=41
60 49.6241235050943 6.115045678901683 149.74356 true Length= 58 SpeedLimitForward = 0 TileId=1110201441 RtgSegIdx=41
Length= 15 SpeedLimitForward = 0 TileId=1110201441 RtgSegIdx=43
Length= 44 SpeedLimitForward = 0 TileId=1110201441 RtgSegIdx=44
80 49.623345575905546 6.115777292538687 142.43141 true Length= 44 SpeedLimitForward = 0 TileId=1110201441 RtgSegIdx=44
Length= 72 SpeedLimitForward = 0 TileId=1110201441 RtgSegIdx=48
Length= 52 SpeedLimitForward = 0 TileId=1110201441 RtgSegIdx=52
110 49.622632168764966 6.116621564964823 142.59465 true Length= 52 SpeedLimitForward = 0 TileId=1110201441 RtgSegIdx=52
Length= 67 SpeedLimitForward = 0 TileId=1110201441 RtgSegIdx=55
120 49.621886457669035 6.117370578923927 146.30994 true Length= 67 SpeedLimitForward = 0 TileId=1110201441 RtgSegIdx=55
Length= 35 SpeedLimitForward = 0 TileId=1110201441 RtgSegIdx=58
Length= 91 SpeedLimitForward = 0 TileId=1110201441 RtgSegIdx=59
140 49.6211340699019 6.11817367433563 143.84181 true Length= 91 SpeedLimitForward = 0 TileId=1110201441 RtgSegIdx=59
Length= 64 SpeedLimitForward = 0 TileId=1110201441 RtgSegIdx=71
Length= 102 SpeedLimitForward = 0 TileId=1110201441 RtgSegIdx=78
160 49.62040551464875 6.118995486281988 127.874985 true Length= 102 SpeedLimitForward = 0 TileId=1110201441 RtgSegIdx=78
Length= 36 SpeedLimitForward = 0 TileId=1110201441 RtgSegIdx=85
190 49.61967883124848 6.120319256388504 126.57303 true Length= 36 SpeedLimitForward = 0 TileId=1110201441 RtgSegIdx=85
Length= 40 SpeedLimitForward = 0 TileId=1110266977 RtgSegIdx=45
Length= 39 SpeedLimitForward = 0 TileId=1110266977 RtgSegIdx=56
Length= 119 SpeedLimitForward = 0 TileId=1110266977 RtgSegIdx=75
210 49.61904596983925 6.121722417135681 110.556046 true Length= 119 SpeedLimitForward = 0 TileId=1110266977 RtgSegIdx=75
Length= 107 SpeedLimitForward = 0 TileId=1110266977 RtgSegIdx=77